createdAt,value
2023-05-10T00:01:06.979Z,34.96
2023-05-10T00:03:33.478Z,35.10
2023-05-10T00:05:59.964Z,35.05
2023-05-10T00:08:26.443Z,35.23
2023-05-10T00:10:52.809Z,35.11
2023-05-10T00:13:19.480Z,35.16
2023-05-10T00:15:45.953Z,35.18
2023-05-10T00:18:12.385Z,35.49
2023-05-10T00:20:39.236Z,35.92
2023-05-10T00:23:05.632Z,35.48
2023-05-10T00:25:32.707Z,35.30
2023-05-10T00:28:01.417Z,35.28
2023-05-10T00:30:28.020Z,35.35
2023-05-10T00:32:54.526Z,35.38
2023-05-10T00:35:21.090Z,35.44
2023-05-10T00:37:47.580Z,35.54
2023-05-10T00:40:14.104Z,35.94
2023-05-10T00:42:40.670Z,35.53
2023-05-10T00:45:07.059Z,36.08
2023-05-10T00:47:33.564Z,36.06
2023-05-10T00:50:02.239Z,35.81
2023-05-10T00:52:28.797Z,36.08
2023-05-10T00:54:55.406Z,36.17
2023-05-10T00:57:21.995Z,36.37
2023-05-10T00:59:48.508Z,36.26
2023-05-10T01:02:14.903Z,36.65
2023-05-10T01:04:41.358Z,36.40
2023-05-10T01:07:08.080Z,37.00
2023-05-10T01:09:34.465Z,36.95
2023-05-10T01:12:01.013Z,37.21
2023-05-10T01:14:28.331Z,37.27
2023-05-10T01:16:54.759Z,36.78
2023-05-10T01:19:21.291Z,37.10
2023-05-10T01:21:47.980Z,37.38
2023-05-10T01:24:14.303Z,37.40
2023-05-10T01:26:42.778Z,37.15
2023-05-10T01:29:09.165Z,37.01
2023-05-10T01:31:35.609Z,36.71
2023-05-10T01:34:02.162Z,37.35
2023-05-10T01:36:28.650Z,37.35
2023-05-10T01:38:55.379Z,37.13
2023-05-10T01:41:22.013Z,37.29
2023-05-10T01:43:48.619Z,37.28
2023-05-10T01:46:15.745Z,37.45
2023-05-10T01:48:45.651Z,37.38
2023-05-10T01:51:12.201Z,37.30
2023-05-10T01:53:38.623Z,37.18
2023-05-10T01:56:05.023Z,37.61
2023-05-10T01:58:31.501Z,37.65
2023-05-10T02:01:00.227Z,37.43
2023-05-10T02:03:26.694Z,37.55
2023-05-10T02:05:53.123Z,37.62
2023-05-10T02:08:19.620Z,37.59
2023-05-10T02:10:46.038Z,37.63
2023-05-10T02:13:12.508Z,37.91
2023-05-10T02:15:38.930Z,37.84
2023-05-10T02:18:05.403Z,37.77
2023-05-10T02:20:31.914Z,37.69
2023-05-10T02:22:58.382Z,37.86
2023-05-10T02:25:24.848Z,37.81
2023-05-10T02:27:51.360Z,37.67
2023-05-10T02:30:18.008Z,37.90
2023-05-10T02:32:45.097Z,37.88
2023-05-10T02:35:11.573Z,38.11
2023-05-10T02:37:38.228Z,38.18
2023-05-10T02:40:04.877Z,38.23
2023-05-10T02:42:31.312Z,38.20
2023-05-10T02:44:58.099Z,38.21
2023-05-10T02:47:24.535Z,38.30
2023-05-10T02:49:51.074Z,38.65
2023-05-10T02:52:17.457Z,38.58
2023-05-10T02:54:43.882Z,38.67
2023-05-10T02:57:10.577Z,38.71
2023-05-10T02:59:37.473Z,38.49
2023-05-10T03:02:04.857Z,38.65
2023-05-10T03:04:31.468Z,38.59
2023-05-10T03:06:58.155Z,38.59
2023-05-10T03:09:24.737Z,38.65
2023-05-10T03:11:51.266Z,38.59
2023-05-10T03:14:17.712Z,38.68
2023-05-10T03:16:45.132Z,38.60
2023-05-10T03:19:11.860Z,38.92
2023-05-10T03:21:38.442Z,38.98
2023-05-10T03:24:04.872Z,39.14
2023-05-10T03:26:31.279Z,39.00
2023-05-10T03:28:57.638Z,39.04
2023-05-10T03:31:24.066Z,39.40
2023-05-10T03:34:02.391Z,39.21
2023-05-10T03:36:28.794Z,39.05
2023-05-10T03:38:55.192Z,39.09
2023-05-10T03:41:21.623Z,38.91
2023-05-10T03:43:48.114Z,39.01
2023-05-10T03:46:14.511Z,39.05
2023-05-10T03:48:43.387Z,38.90
2023-05-10T03:51:09.780Z,38.73
2023-05-10T03:53:36.196Z,38.96
2023-05-10T03:56:02.546Z,38.83
2023-05-10T03:58:28.973Z,38.57
2023-05-10T04:00:55.342Z,38.52
2023-05-10T04:03:21.915Z,38.52
2023-05-10T04:05:49.476Z,38.74
2023-05-10T04:08:16.026Z,38.92
2023-05-10T04:10:42.446Z,38.82
2023-05-10T04:13:09.095Z,39.00
2023-05-10T04:15:35.654Z,38.98
2023-05-10T04:18:02.093Z,39.07
2023-05-10T04:20:28.925Z,39.50
2023-05-10T04:22:55.270Z,39.55
2023-05-10T04:25:21.811Z,39.63
2023-05-10T04:27:48.447Z,39.85
2023-05-10T04:30:16.000Z,39.42
2023-05-10T04:32:42.583Z,39.50
2023-05-10T04:35:09.196Z,39.39
2023-05-10T04:37:35.592Z,39.47
2023-05-10T04:40:02.043Z,39.16
2023-05-10T04:42:28.434Z,39.18
2023-05-10T04:44:54.912Z,39.37
2023-05-10T04:47:21.478Z,39.24
2023-05-10T04:49:47.911Z,39.57
2023-05-10T04:52:14.341Z,39.38
2023-05-10T04:54:41.205Z,39.79
2023-05-10T04:57:07.579Z,39.51
2023-05-10T04:59:35.456Z,39.21
2023-05-10T05:02:01.937Z,38.98
2023-05-10T05:04:28.548Z,39.16
2023-05-10T05:06:55.256Z,39.50
2023-05-10T05:09:22.846Z,39.59
2023-05-10T05:11:49.665Z,39.62
2023-05-10T05:14:16.119Z,39.41
2023-05-10T05:16:43.021Z,39.53
2023-05-10T05:19:09.441Z,39.74
2023-05-10T05:21:35.826Z,39.66
2023-05-10T05:24:02.276Z,39.73
2023-05-10T05:26:28.672Z,39.68
2023-05-10T05:28:55.430Z,39.45
2023-05-10T05:31:22.011Z,39.02
2023-05-10T05:33:48.471Z,39.08
2023-05-10T05:36:15.284Z,38.70
2023-05-10T05:38:41.762Z,39.11
2023-05-10T05:41:08.152Z,39.43
2023-05-10T05:43:37.470Z,39.05
2023-05-10T05:46:04.897Z,38.66
2023-05-10T05:48:31.472Z,38.56
2023-05-10T05:50:57.869Z,38.67
2023-05-10T05:53:24.615Z,39.18
2023-05-10T05:55:51.046Z,38.90
2023-05-10T05:58:18.316Z,38.65
2023-05-10T06:00:45.896Z,38.74
2023-05-10T06:03:14.922Z,38.64
2023-05-10T06:05:41.423Z,38.55
2023-05-10T06:08:07.964Z,38.46
2023-05-10T06:10:34.799Z,39.18
2023-05-10T06:13:01.489Z,38.59
2023-05-10T06:15:30.886Z,38.31
2023-05-10T06:18:00.189Z,38.49
2023-05-10T06:20:27.634Z,38.27
2023-05-10T06:22:54.067Z,38.56
2023-05-10T06:25:20.515Z,37.90
2023-05-10T06:27:50.975Z,38.02
2023-05-10T06:30:19.392Z,37.71
2023-05-10T06:32:45.831Z,37.29
2023-05-10T06:35:12.255Z,37.42
2023-05-10T06:37:38.792Z,37.12
2023-05-10T06:40:07.234Z,37.44
2023-05-10T06:42:33.726Z,36.86
2023-05-10T06:45:00.167Z,36.90
2023-05-10T06:47:26.703Z,36.37
2023-05-10T06:49:53.181Z,36.43
2023-05-10T06:52:19.605Z,36.31
2023-05-10T06:54:45.976Z,35.73
2023-05-10T06:57:23.402Z,36.29
2023-05-10T06:59:57.581Z,35.92
2023-05-10T07:02:24.070Z,35.72
2023-05-10T07:04:50.797Z,36.15
2023-05-10T07:07:17.303Z,36.31
2023-05-10T07:09:43.727Z,35.35
2023-05-10T07:12:12.131Z,35.67
2023-05-10T07:14:39.935Z,35.79
2023-05-10T07:17:06.284Z,36.15
2023-05-10T07:19:32.797Z,35.45
2023-05-10T07:21:59.380Z,35.45
2023-05-10T07:24:25.811Z,34.96
2023-05-10T07:26:52.249Z,35.25
2023-05-10T07:29:18.731Z,34.83
2023-05-10T07:31:45.144Z,34.01
2023-05-10T07:34:11.722Z,34.90
2023-05-10T07:36:38.146Z,35.14
2023-05-10T07:39:05.118Z,34.81
2023-05-10T07:41:31.516Z,34.57
2023-05-10T07:43:57.879Z,34.82
2023-05-10T07:46:24.433Z,35.33
2023-05-10T07:48:51.010Z,35.37
2023-05-10T07:51:17.876Z,35.48
2023-05-10T07:53:44.211Z,35.77
2023-05-10T07:56:10.946Z,35.60
2023-05-10T07:58:37.309Z,35.49
2023-05-10T08:01:03.733Z,35.08
2023-05-10T08:03:30.178Z,34.72
2023-05-10T08:05:56.599Z,34.89
2023-05-10T08:08:23.182Z,34.50
2023-05-10T08:10:49.584Z,35.00
2023-05-10T08:13:16.175Z,35.28
2023-05-10T08:15:43.066Z,35.18
2023-05-10T08:18:09.672Z,34.74
2023-05-10T08:20:37.520Z,34.81
2023-05-10T08:23:03.917Z,34.71
2023-05-10T08:25:30.449Z,34.43
2023-05-10T08:27:56.988Z,34.53
2023-05-10T08:30:23.392Z,34.21
2023-05-10T08:32:50.045Z,34.25
2023-05-10T08:35:16.709Z,34.46
2023-05-10T08:37:45.902Z,34.43
2023-05-10T08:40:12.282Z,34.15
2023-05-10T08:42:38.675Z,34.02
2023-05-10T08:45:05.077Z,33.95
2023-05-10T08:47:31.702Z,34.43
2023-05-10T08:49:58.104Z,34.27
2023-05-10T08:52:24.528Z,34.07
2023-05-10T08:54:51.484Z,33.79
2023-05-10T08:57:18.868Z,34.01
2023-05-10T08:59:45.296Z,33.79
2023-05-10T09:02:11.672Z,33.48
2023-05-10T09:04:38.174Z,33.56
2023-05-10T09:07:04.645Z,33.82
2023-05-10T09:09:31.094Z,33.47
2023-05-10T09:11:57.517Z,33.32
2023-05-10T09:14:26.233Z,33.71
2023-05-10T09:16:53.244Z,33.70
2023-05-10T09:19:20.051Z,33.37
2023-05-10T09:21:46.466Z,33.38
2023-05-10T09:24:12.848Z,33.72
2023-05-10T09:26:39.260Z,33.59
2023-05-10T09:29:05.637Z,33.66
2023-05-10T09:31:32.108Z,33.03
2023-05-10T09:33:58.498Z,33.07
2023-05-10T09:36:24.951Z,32.99
2023-05-10T09:38:51.339Z,32.72
2023-05-10T09:41:18.037Z,32.71
2023-05-10T09:43:44.463Z,32.79
2023-05-10T09:46:10.871Z,32.54
2023-05-10T09:48:37.292Z,32.76
2023-05-10T09:51:04.040Z,32.28
2023-05-10T09:53:30.764Z,32.19
2023-05-10T09:55:57.540Z,31.82
2023-05-10T09:58:24.317Z,31.76
2023-05-10T10:00:50.781Z,31.84
2023-05-10T10:03:17.579Z,31.73
2023-05-10T10:05:44.132Z,31.57
2023-05-10T10:08:10.644Z,31.56
2023-05-10T10:10:36.991Z,31.43
2023-05-10T10:13:03.388Z,32.27
2023-05-10T10:15:30.125Z,31.63
2023-05-10T10:17:56.556Z,31.21
2023-05-10T10:20:23.275Z,31.12
2023-05-10T10:22:49.674Z,31.29
2023-05-10T10:25:16.451Z,31.55
2023-05-10T10:27:43.196Z,31.53
2023-05-10T10:30:09.671Z,31.33
2023-05-10T10:32:36.120Z,31.30
2023-05-10T10:35:03.640Z,31.10
2023-05-10T10:37:29.959Z,31.17
2023-05-10T10:39:57.424Z,31.22
2023-05-10T10:42:23.887Z,30.75
2023-05-10T10:44:50.314Z,30.89
2023-05-10T10:47:17.159Z,31.20
2023-05-10T10:49:44.069Z,30.69
2023-05-10T10:52:10.738Z,30.09
2023-05-10T10:54:37.476Z,31.09
2023-05-10T10:57:03.868Z,31.17
2023-05-10T10:59:30.228Z,30.83
2023-05-10T11:01:57.206Z,30.22
2023-05-10T11:04:23.646Z,29.94
2023-05-10T11:06:50.394Z,29.67
2023-05-10T11:09:16.835Z,30.29
2023-05-10T11:11:43.251Z,29.98
2023-05-10T11:14:09.947Z,29.98
2023-05-10T11:16:36.385Z,29.76
2023-05-10T11:19:02.897Z,30.13
2023-05-10T11:21:29.360Z,29.88
2023-05-10T11:23:55.748Z,30.23
2023-05-10T11:26:22.159Z,30.56
2023-05-10T11:28:55.910Z,30.13
2023-05-10T11:31:22.751Z,29.82
2023-05-10T11:33:49.200Z,30.38
2023-05-10T11:36:15.577Z,30.66
2023-05-10T11:38:41.975Z,30.67
2023-05-10T11:41:08.356Z,30.19
2023-05-10T11:43:34.710Z,30.16
2023-05-10T11:46:01.094Z,30.56
2023-05-10T11:48:27.578Z,30.36
2023-05-10T11:50:53.991Z,29.00
2023-05-10T11:53:20.756Z,29.92
2023-05-10T11:55:47.059Z,30.39
2023-05-10T11:58:13.466Z,30.03
2023-05-10T12:00:39.952Z,29.86
2023-05-10T12:03:06.493Z,30.13
2023-05-10T12:05:33.113Z,29.45
2023-05-10T12:07:59.567Z,29.63
2023-05-10T12:10:26.197Z,28.75
2023-05-10T12:12:52.898Z,29.48
2023-05-10T12:15:19.289Z,30.00
2023-05-10T12:17:45.778Z,29.19
2023-05-10T12:20:12.241Z,29.58
2023-05-10T12:22:38.679Z,29.43
2023-05-10T12:25:05.053Z,28.35
2023-05-10T12:27:31.549Z,28.07
2023-05-10T12:29:58.083Z,28.90
2023-05-10T12:32:24.650Z,28.61
2023-05-10T12:34:51.099Z,28.59
2023-05-10T12:37:17.876Z,28.27
2023-05-10T12:39:44.377Z,27.40
2023-05-10T12:42:10.784Z,27.95
2023-05-10T12:44:37.136Z,27.20
2023-05-10T12:47:03.527Z,28.00
2023-05-10T12:49:29.927Z,27.39
2023-05-10T12:51:56.283Z,27.64
2023-05-10T12:54:22.825Z,27.32
2023-05-10T12:56:49.242Z,27.75
2023-05-10T12:59:15.655Z,27.29
2023-05-10T13:01:42.386Z,27.46
2023-05-10T13:04:08.963Z,27.87
2023-05-10T13:06:35.358Z,26.91
2023-05-10T13:09:01.784Z,26.95
2023-05-10T13:11:28.231Z,27.69
2023-05-10T13:13:54.847Z,27.56
2023-05-10T13:16:21.338Z,27.57
2023-05-10T13:18:47.758Z,27.83
2023-05-10T13:21:14.147Z,27.30
2023-05-10T13:23:40.546Z,27.23
2023-05-10T13:26:06.885Z,27.08
2023-05-10T13:28:33.300Z,26.86
2023-05-10T13:30:59.747Z,27.13
2023-05-10T13:33:26.154Z,27.79
2023-05-10T13:35:54.411Z,27.74
2023-05-10T13:38:22.526Z,27.59
2023-05-10T13:40:49.060Z,27.65
2023-05-10T13:43:15.416Z,27.21
2023-05-10T13:45:41.818Z,27.46
2023-05-10T13:48:08.289Z,27.22
2023-05-10T13:50:34.753Z,27.20
2023-05-10T13:53:02.352Z,27.28
2023-05-10T13:55:28.737Z,27.44
2023-05-10T13:57:55.616Z,26.91
2023-05-10T14:00:22.326Z,27.13
2023-05-10T14:02:48.786Z,26.49
2023-05-10T14:05:16.988Z,26.64
2023-05-10T14:07:44.687Z,26.74
2023-05-10T14:10:11.092Z,26.26
2023-05-10T14:12:44.841Z,26.49
2023-05-10T14:15:11.198Z,26.50
2023-05-10T14:17:39.064Z,26.70
2023-05-10T14:20:05.559Z,25.66
2023-05-10T14:22:32.315Z,25.76
2023-05-10T14:24:58.797Z,26.64
2023-05-10T14:27:25.162Z,25.86
2023-05-10T14:29:51.692Z,25.59
2023-05-10T14:32:18.359Z,25.09
2023-05-10T14:34:44.929Z,25.69
2023-05-10T14:37:11.299Z,25.84
2023-05-10T14:39:37.918Z,24.93
2023-05-10T14:42:04.319Z,25.03
2023-05-10T14:44:30.794Z,25.70
2023-05-10T14:46:57.481Z,25.37
2023-05-10T14:49:23.904Z,25.76
2023-05-10T14:51:50.700Z,25.64
2023-05-10T14:54:17.060Z,25.53
2023-05-10T14:56:44.504Z,25.04
2023-05-10T14:59:10.929Z,25.34
2023-05-10T15:01:38.186Z,24.63
2023-05-10T15:04:05.019Z,24.20
2023-05-10T15:06:31.962Z,24.65
2023-05-10T15:08:58.350Z,24.33
2023-05-10T15:11:24.910Z,24.57
2023-05-10T15:13:52.770Z,23.76
2023-05-10T15:16:19.358Z,23.65
2023-05-10T15:18:45.810Z,23.92
2023-05-10T15:21:12.348Z,24.30
2023-05-10T15:23:38.741Z,23.95
2023-05-10T15:26:05.534Z,23.50
2023-05-10T15:28:33.060Z,23.57
2023-05-10T15:31:00.940Z,23.85
2023-05-10T15:33:27.393Z,23.70
2023-05-10T15:35:53.828Z,23.18
2023-05-10T15:38:20.288Z,23.40
2023-05-10T15:40:47.073Z,23.62
2023-05-10T15:43:13.587Z,23.42
2023-05-10T15:45:40.123Z,23.12
2023-05-10T15:48:09.253Z,23.64
2023-05-10T15:50:35.931Z,24.25
2023-05-10T15:53:02.423Z,24.63
2023-05-10T15:55:29.020Z,24.88
2023-05-10T15:57:55.660Z,25.23
2023-05-10T16:00:22.101Z,25.28
2023-05-10T16:02:48.570Z,25.21
2023-05-10T16:05:15.734Z,25.05
2023-05-10T16:07:42.344Z,25.48
2023-05-10T16:10:08.862Z,24.87
2023-05-10T16:12:36.563Z,25.57
2023-05-10T16:15:03.610Z,25.29
2023-05-10T16:17:31.325Z,25.55
2023-05-10T16:19:58.754Z,25.00
2023-05-10T16:22:25.677Z,24.83
2023-05-10T16:24:52.877Z,25.57
2023-05-10T16:27:20.002Z,25.27
2023-05-10T16:29:46.944Z,25.06
2023-05-10T16:32:15.385Z,25.56
2023-05-10T16:34:42.337Z,25.67
2023-05-10T16:37:09.816Z,25.75
2023-05-10T16:39:36.817Z,26.06
2023-05-10T16:42:05.988Z,25.92
2023-05-10T16:44:33.031Z,25.95
2023-05-10T16:47:00.159Z,25.55
2023-05-10T16:49:28.207Z,25.11
2023-05-10T16:51:55.316Z,25.99
2023-05-10T16:54:22.625Z,25.50
2023-05-10T16:56:52.049Z,25.10
2023-05-10T16:59:20.058Z,25.89
2023-05-10T17:01:47.338Z,25.73
2023-05-10T17:04:14.479Z,25.44
2023-05-10T17:06:41.780Z,25.31
2023-05-10T17:09:08.969Z,25.61
2023-05-10T17:11:37.308Z,25.57
2023-05-10T17:14:04.869Z,25.76
2023-05-10T17:16:32.028Z,25.64
2023-05-10T17:18:59.391Z,25.84
2023-05-10T17:21:26.616Z,25.71
2023-05-10T17:23:53.714Z,25.91
2023-05-10T17:26:21.360Z,26.45
2023-05-10T17:28:48.459Z,26.27
2023-05-10T17:31:15.616Z,26.72
2023-05-10T17:33:43.088Z,26.60
2023-05-10T17:36:13.239Z,26.72
2023-05-10T17:38:40.576Z,26.52
2023-05-10T17:41:10.373Z,26.23
2023-05-10T17:43:38.041Z,26.37
2023-05-10T17:46:05.268Z,27.32
2023-05-10T17:48:32.518Z,26.90
2023-05-10T17:50:59.740Z,27.09
2023-05-10T17:53:27.575Z,27.22
2023-05-10T17:55:54.900Z,27.04
2023-05-10T17:58:23.462Z,26.77
2023-05-10T18:00:51.291Z,27.27
2023-05-10T18:03:18.517Z,27.50
2023-05-10T18:05:46.311Z,27.48
2023-05-10T18:08:13.615Z,27.13
2023-05-10T18:10:41.456Z,27.41
2023-05-10T18:13:09.088Z,27.59
2023-05-10T18:15:39.676Z,26.40
2023-05-10T18:18:07.955Z,27.25
2023-05-10T18:20:35.276Z,26.82
2023-05-10T18:23:02.493Z,26.78
2023-05-10T18:25:31.877Z,27.06
2023-05-10T18:28:00.320Z,27.33
2023-05-10T18:30:27.915Z,26.74
2023-05-10T18:32:55.731Z,27.56
2023-05-10T18:35:25.058Z,27.65
2023-05-10T18:37:54.624Z,27.46
2023-05-10T18:40:22.045Z,26.98
2023-05-10T18:42:49.339Z,28.00
2023-05-10T18:45:16.848Z,28.13
2023-05-10T18:47:44.443Z,28.26
2023-05-10T18:50:13.821Z,28.05
2023-05-10T18:52:41.111Z,27.81
2023-05-10T18:55:08.423Z,27.63
2023-05-10T18:57:35.677Z,27.79
2023-05-10T19:00:02.900Z,28.16
2023-05-10T19:02:30.882Z,28.58
2023-05-10T19:04:58.146Z,27.76
2023-05-10T19:07:25.393Z,27.97
2023-05-10T19:09:52.671Z,27.74
2023-05-10T19:12:19.898Z,27.43
2023-05-10T19:14:48.174Z,27.89
2023-05-10T19:17:15.521Z,27.82
2023-05-10T19:19:44.615Z,28.05
2023-05-10T19:22:13.342Z,27.93
2023-05-10T19:24:40.796Z,28.51
2023-05-10T19:27:08.113Z,28.02
2023-05-10T19:29:35.358Z,28.36
2023-05-10T19:32:04.117Z,28.21
2023-05-10T19:34:31.485Z,28.21
2023-05-10T19:36:59.598Z,27.85
2023-05-10T19:39:27.908Z,28.43
2023-05-10T19:41:55.240Z,28.41
2023-05-10T19:44:25.346Z,28.36
2023-05-10T19:46:55.609Z,27.99
2023-05-10T19:49:22.932Z,28.08
2023-05-10T19:51:51.324Z,28.37
2023-05-10T19:54:18.529Z,28.44
2023-05-10T19:56:46.700Z,27.49
2023-05-10T19:59:13.985Z,27.56
2023-05-10T20:01:42.165Z,28.10
2023-05-10T20:04:09.735Z,27.90
2023-05-10T20:06:37.516Z,28.58
2023-05-10T20:09:05.396Z,28.76
2023-05-10T20:11:32.670Z,28.60
2023-05-10T20:14:00.971Z,28.39
2023-05-10T20:16:28.234Z,28.19
2023-05-10T20:18:55.561Z,28.65
2023-05-10T20:21:22.799Z,28.62
2023-05-10T20:23:50.180Z,28.55
2023-05-10T20:26:17.409Z,29.32
2023-05-10T20:28:47.626Z,28.97
2023-05-10T20:31:16.850Z,28.98
2023-05-10T20:33:45.706Z,29.20
2023-05-10T20:36:12.952Z,29.33
2023-05-10T20:38:40.412Z,29.07
2023-05-10T20:41:08.209Z,28.80
2023-05-10T20:43:35.804Z,29.23
2023-05-10T20:46:04.516Z,29.04
2023-05-10T20:48:32.852Z,29.17
2023-05-10T20:51:02.167Z,29.36
2023-05-10T20:53:29.459Z,29.39
2023-05-10T20:55:56.742Z,29.33
2023-05-10T20:58:27.131Z,29.31
2023-05-10T21:00:54.826Z,29.35
2023-05-10T21:03:21.235Z,28.88
2023-05-10T21:05:47.774Z,29.36
2023-05-10T21:08:14.312Z,28.89
2023-05-10T21:10:40.832Z,29.29
2023-05-10T21:13:07.238Z,29.35
2023-05-10T21:15:33.573Z,29.43
2023-05-10T21:18:02.488Z,29.03
2023-05-10T21:20:29.033Z,29.54
2023-05-10T21:22:55.513Z,29.44
2023-05-10T21:25:22.914Z,29.65
2023-05-10T21:27:49.570Z,29.94
2023-05-10T21:30:16.275Z,29.37
2023-05-10T21:32:42.973Z,29.64
2023-05-10T21:35:09.446Z,29.50
2023-05-10T21:37:36.156Z,29.77
2023-05-10T21:40:02.673Z,29.72
2023-05-10T21:42:29.262Z,29.63
2023-05-10T21:44:56.926Z,30.01
2023-05-10T21:47:23.327Z,29.53
2023-05-10T21:49:49.713Z,29.78
2023-05-10T21:52:16.102Z,29.98
2023-05-10T21:54:42.821Z,30.25
2023-05-10T21:57:09.498Z,29.61
2023-05-10T21:59:35.852Z,29.95
2023-05-10T22:02:03.294Z,30.28
2023-05-10T22:04:31.006Z,30.17
2023-05-10T22:06:57.538Z,29.99
2023-05-10T22:09:24.498Z,30.01
2023-05-10T22:11:51.284Z,29.84
2023-05-10T22:14:17.750Z,29.43
2023-05-10T22:16:45.044Z,29.62
2023-05-10T22:19:11.651Z,29.55
2023-05-10T22:21:38.178Z,29.80
2023-05-10T22:24:04.920Z,30.16
2023-05-10T22:26:31.267Z,30.16
2023-05-10T22:28:57.986Z,30.70
2023-05-10T22:31:24.592Z,30.32
2023-05-10T22:33:51.042Z,30.23
2023-05-10T22:36:17.797Z,30.20
2023-05-10T22:38:44.235Z,30.09
2023-05-10T22:41:10.725Z,30.36
2023-05-10T22:43:37.361Z,30.69
2023-05-10T22:46:04.835Z,29.84
2023-05-10T22:48:31.340Z,30.28
2023-05-10T22:50:57.781Z,30.58
2023-05-10T22:53:24.954Z,30.50
2023-05-10T22:55:51.449Z,30.05
2023-05-10T22:58:19.310Z,30.07
2023-05-10T23:00:45.737Z,30.22
2023-05-10T23:03:12.150Z,30.73
2023-05-10T23:05:38.582Z,30.25
2023-05-10T23:08:05.641Z,30.15
2023-05-10T23:10:32.107Z,30.37
2023-05-10T23:12:58.532Z,30.53
2023-05-10T23:15:25.106Z,30.48
2023-05-10T23:17:51.897Z,30.43
2023-05-10T23:20:18.763Z,30.30
2023-05-10T23:22:45.505Z,30.45
2023-05-10T23:25:12.208Z,30.15
2023-05-10T23:27:38.674Z,30.50
2023-05-10T23:30:05.298Z,30.74
2023-05-10T23:32:32.702Z,30.91
2023-05-10T23:34:59.377Z,30.71
2023-05-10T23:37:28.382Z,30.81
2023-05-10T23:39:57.910Z,30.96
2023-05-10T23:42:24.556Z,30.32
2023-05-10T23:44:52.081Z,30.74
2023-05-10T23:49:45.128Z,31.09
2023-05-10T23:52:11.730Z,31.10
2023-05-10T23:57:05.581Z,31.16
2023-05-10T23:59:32.645Z,31.23
